PWSweather.com
Personal Weather Stations
Station Observations
GEELONGWX1
Bell Post Hill, GeelongAU

Bell Post HillGeelongAU

Lat: -38.101, Lon: 144.326

Elevation: 204

Station Type: Davis Vantage Pro2

http://www.geelongweather.com

High Low Average
Temperature 76.0°F24.4°F 44.9°F7.2°F 57.0°F13.9°F
Dew Point 56.8°F13.8°F 42.4°F5.8°F 47.8°F8.8°F
Winds 6.9 mph -11.1 mph - Calm Calm 1.5 mph 2.4 mph
Wind Gusts 11.5 mph18.5 mph -- 2.2 mph3.5 mph
Humidity 94% 40% 74%
Pressure 30.46 in1031.50 in 30.27 in1025.10 in -
Precipitation 0.01 in0.30 in - -
Hour Temp Dew Point Humidity Winds Wind Gusts Pressure Precip Precip Rate Daily Precip Total
12:00 AM 49.4°F9.7°C 46.0°F7.8°C 88% Calm Calm -- 30.46 in1031.5 mb - 0.00 in0.0 mm 0.00 in0.0 mm
12:10 AM 49.1°F9.5°C 45.7°F7.6°C 88% Calm Calm -- 30.46 in1031.5 mb - 0.00 in0.0 mm 0.00 in0.0 mm
12:20 AM 48.7°F9.3°C 45.0°F7.2°C 87% Calm Calm -- 30.46 in1031.5 mb - 0.00 in0.0 mm 0.00 in0.0 mm
12:30 AM 48.4°F9.1°C 44.7°F7.1°C 87% Calm Calm -- 30.46 in1031.5 mb - 0.00 in0.0 mm 0.00 in0.0 mm
12:40 AM 48.1°F8.9°C 44.4°F6.9°C 87% Calm Calm -- 30.46 in1031.5 mb - 0.00 in0.0 mm 0.00 in0.0 mm
12:50 AM 47.8°F8.8°C 44.4°F6.9°C 88% Calm Calm -- 30.46 in1031.5 mb - 0.00 in0.0 mm 0.00 in0.0 mm
01:00 AM 47.3°F8.5°C 43.9°F6.6°C 88% Calm Calm -- 30.46 in1031.5 mb - 0.00 in0.0 mm 0.00 in0.0 mm
01:10 AM 46.8°F8.2°C 43.5°F6.4°C 88% Calm Calm -- 30.45 in1031.2 mb - 0.00 in0.0 mm 0.00 in0.0 mm
01:20 AM 46.5°F8.1°C 43.1°F6.2°C 88% Calm Calm -- 30.45 in1031.2 mb - 0.00 in0.0 mm 0.00 in0.0 mm
01:30 AM 46.2°F7.9°C 42.8°F6.0°C 88% Calm Calm -- 30.45 in1031.2 mb - 0.00 in0.0 mm 0.00 in0.0 mm
01:40 AM 46.1°F7.8°C 43.0°F6.1°C 89% Calm Calm -- 30.45 in1031.2 mb - 0.00 in0.0 mm 0.00 in0.0 mm
01:50 AM 45.9°F7.7°C 42.8°F6.0°C 89% Calm Calm -- 30.45 in1031.2 mb - 0.00 in0.0 mm 0.00 in0.0 mm
02:00 AM 45.7°F7.6°C 42.6°F5.9°C 89% Calm Calm -- 30.44 in1030.8 mb - 0.00 in0.0 mm 0.00 in0.0 mm
02:10 AM 45.6°F7.6°C 42.8°F6.0°C 90% Calm Calm -- 30.44 in1030.8 mb - 0.00 in0.0 mm 0.00 in0.0 mm
02:20 AM 45.6°F7.6°C 42.8°F6.0°C 90% Calm Calm -- 30.44 in1030.8 mb - 0.00 in0.0 mm 0.00 in0.0 mm
02:30 AM 45.6°F7.6°C 42.8°F6.0°C 90% Calm Calm -- 30.44 in1030.8 mb - 0.00 in0.0 mm 0.00 in0.0 mm
02:40 AM 45.6°F7.6°C 42.8°F6.0°C 90% Calm Calm -- 30.44 in1030.8 mb - 0.00 in0.0 mm 0.00 in0.0 mm
02:50 AM 45.6°F7.6°C 42.8°F6.0°C 90% Calm Calm -- 30.44 in1030.8 mb - 0.00 in0.0 mm 0.00 in0.0 mm
03:00 AM 45.5°F7.5°C 43.0°F6.1°C 91% Calm Calm -- 30.44 in1030.8 mb - 0.00 in0.0 mm 0.00 in0.0 mm
03:10 AM 45.5°F7.5°C 43.0°F6.1°C 91% Calm Calm -- 30.43 in1030.5 mb - 0.00 in0.0 mm 0.00 in0.0 mm
03:20 AM 45.5°F7.5°C 43.0°F6.1°C 91% Calm Calm -- 30.43 in1030.5 mb - 0.00 in0.0 mm 0.00 in0.0 mm
03:30 AM 45.4°F7.4°C 43.0°F6.1°C 91% Calm Calm -- 30.43 in1030.5 mb - 0.00 in0.0 mm 0.00 in0.0 mm
03:40 AM 45.4°F7.4°C 42.9°F6.1°C 91% Calm Calm -- 30.43 in1030.5 mb - 0.00 in0.0 mm 0.00 in0.0 mm
03:50 AM 45.4°F7.4°C 42.9°F6.1°C 91% Calm Calm -- 30.43 in1030.5 mb - 0.00 in0.0 mm 0.00 in0.0 mm
04:00 AM 45.3°F7.4°C 42.8°F6.0°C 91% Calm Calm -- 30.43 in1030.5 mb - 0.00 in0.0 mm 0.00 in0.0 mm
04:10 AM 45.2°F7.3°C 42.7°F5.9°C 91% Calm Calm -- 30.43 in1030.5 mb - 0.00 in0.0 mm 0.00 in0.0 mm
04:20 AM 45.0°F7.2°C 42.5°F5.8°C 91% Calm Calm -- 30.43 in1030.5 mb - 0.00 in0.0 mm 0.00 in0.0 mm
04:30 AM 44.9°F7.2°C 42.4°F5.8°C 91% Calm Calm -- 30.43 in1030.5 mb - 0.00 in0.0 mm 0.00 in0.0 mm
04:40 AM 44.9°F7.2°C 42.4°F5.8°C 91% Calm Calm -- 30.43 in1030.5 mb - 0.00 in0.0 mm 0.00 in0.0 mm
04:50 AM 45.1°F7.3°C 42.6°F5.9°C 91% Calm Calm -- 30.43 in1030.5 mb - 0.00 in0.0 mm 0.00 in0.0 mm
05:00 AM 45.3°F7.4°C 42.8°F6.0°C 91% Calm Calm -- 30.43 in1030.5 mb - 0.00 in0.0 mm 0.00 in0.0 mm
05:10 AM 45.4°F7.4°C 42.9°F6.1°C 91% Calm Calm -- 30.43 in1030.5 mb - 0.00 in0.0 mm 0.00 in0.0 mm
05:20 AM 45.7°F7.6°C 43.5°F6.4°C 92% Calm Calm -- 30.43 in1030.5 mb - 0.00 in0.0 mm 0.00 in0.0 mm
05:30 AM 46.0°F7.8°C 43.5°F6.4°C 91% Calm Calm -- 30.43 in1030.5 mb - 0.00 in0.0 mm 0.00 in0.0 mm
05:40 AM 46.1°F7.8°C 43.6°F6.4°C 91% Calm Calm -- 30.43 in1030.5 mb - 0.00 in0.0 mm 0.00 in0.0 mm
05:50 AM 46.3°F7.9°C 43.8°F6.6°C 91% Calm Calm -- 30.43 in1030.5 mb - 0.00 in0.0 mm 0.00 in0.0 mm
06:00 AM 46.3°F7.9°C 44.1°F6.7°C 92% Calm Calm -- 30.42 in1030.1 mb - 0.00 in0.0 mm 0.00 in0.0 mm
06:10 AM 46.4°F8.0°C 44.2°F6.8°C 92% Calm Calm -- 30.43 in1030.5 mb - 0.01 in0.3 mm 0.01 in0.3 mm
06:20 AM 46.5°F8.1°C 44.3°F6.8°C 92% Calm Calm -- 30.43 in1030.5 mb - 0.00 in0.0 mm 0.01 in0.3 mm
06:30 AM 46.5°F8.1°C 44.3°F6.8°C 92% Calm Calm -- 30.43 in1030.5 mb - 0.00 in0.0 mm 0.01 in0.3 mm
06:40 AM 46.5°F8.1°C 44.3°F6.8°C 92% Calm Calm -- 30.43 in1030.5 mb - 0.00 in0.0 mm 0.01 in0.3 mm
06:50 AM 46.6°F8.1°C 44.4°F6.9°C 92% Calm Calm -- 30.43 in1030.5 mb - 0.00 in0.0 mm 0.01 in0.3 mm
07:00 AM 46.7°F8.2°C 44.5°F6.9°C 92% Calm Calm -- 30.43 in1030.5 mb - 0.00 in0.0 mm 0.01 in0.3 mm
07:10 AM 46.8°F8.2°C 44.6°F7.0°C 92% Calm Calm -- 30.43 in1030.5 mb - 0.00 in0.0 mm 0.01 in0.3 mm
07:20 AM 46.8°F8.2°C 44.6°F7.0°C 92% Calm Calm -- 30.43 in1030.5 mb - 0.00 in0.0 mm 0.01 in0.3 mm
07:30 AM 46.8°F8.2°C 44.6°F7.0°C 92% Calm Calm -- 30.43 in1030.5 mb - 0.00 in0.0 mm 0.01 in0.3 mm
07:40 AM 46.8°F8.2°C 44.6°F7.0°C 92% Calm Calm -- 30.43 in1030.5 mb - 0.00 in0.0 mm 0.01 in0.3 mm
07:50 AM 46.9°F8.3°C 44.7°F7.1°C 92% Calm Calm -- 30.43 in1030.5 mb - 0.00 in0.0 mm 0.01 in0.3 mm
08:00 AM 46.9°F8.3°C 44.7°F7.1°C 92% Calm Calm -- 30.43 in1030.5 mb - 0.00 in0.0 mm 0.01 in0.3 mm
08:10 AM 47.1°F8.4°C 44.9°F7.2°C 92% Calm Calm -- 30.43 in1030.5 mb - 0.00 in0.0 mm 0.01 in0.3 mm
08:20 AM 47.4°F8.6°C 45.2°F7.3°C 92% Calm Calm -- 30.44 in1030.8 mb - 0.00 in0.0 mm 0.01 in0.3 mm
08:30 AM 47.8°F8.8°C 45.6°F7.6°C 92% Calm Calm -- 30.44 in1030.8 mb - 0.00 in0.0 mm 0.01 in0.3 mm
08:40 AM 48.3°F9.1°C 46.4°F8.0°C 93% Calm Calm -- 30.44 in1030.8 mb - 0.00 in0.0 mm 0.01 in0.3 mm
08:50 AM 48.8°F9.3°C 46.9°F8.3°C 93% Calm Calm -- 30.44 in1030.8 mb - 0.00 in0.0 mm 0.01 in0.3 mm
09:00 AM 49.4°F9.7°C 47.5°F8.6°C 93% Calm Calm -- 30.44 in1030.8 mb - 0.00 in0.0 mm 0.01 in0.3 mm
09:10 AM 49.9°F9.9°C 48.0°F8.9°C 93% Calm Calm -- 30.44 in1030.8 mb - 0.00 in0.0 mm 0.01 in0.3 mm
09:20 AM 50.7°F10.4°C 49.0°F9.4°C 94% Calm Calm -- 30.44 in1030.8 mb - 0.00 in0.0 mm 0.01 in0.3 mm
09:30 AM 51.7°F10.9°C 50.1°F10.1°C 94% Calm Calm -- 30.44 in1030.8 mb - 0.00 in0.0 mm 0.01 in0.3 mm
09:40 AM 52.6°F11.4°C 51.0°F10.6°C 94% Calm Calm -- 30.43 in1030.5 mb - 0.00 in0.0 mm 0.01 in0.3 mm
09:50 AM 53.0°F11.7°C 51.0°F10.6°C 93% Calm Calm -- 30.43 in1030.5 mb - 0.00 in0.0 mm 0.01 in0.3 mm
10:00 AM 53.2°F11.8°C 51.2°F10.7°C 93% Calm Calm -- 30.43 in1030.5 mb - 0.00 in0.0 mm 0.01 in0.3 mm
10:10 AM 53.8°F12.1°C 51.8°F11.0°C 93% Calm Calm -- 30.43 in1030.5 mb - 0.00 in0.0 mm 0.01 in0.3 mm
10:20 AM 54.5°F12.5°C 52.5°F11.4°C 93% Calm Calm -- 30.43 in1030.5 mb - 0.00 in0.0 mm 0.01 in0.3 mm
10:30 AM 55.4°F13.0°C 53.4°F11.9°C 93% Calm Calm -- 30.43 in1030.5 mb - 0.00 in0.0 mm 0.01 in0.3 mm
10:40 AM 56.6°F13.7°C 54.3°F12.4°C 92% Calm Calm -- 30.43 in1030.5 mb - 0.00 in0.0 mm 0.01 in0.3 mm
10:50 AM 57.5°F14.2°C 54.5°F12.5°C 90% Calm Calm -- 30.42 in1030.1 mb - 0.00 in0.0 mm 0.01 in0.3 mm
11:00 AM 58.7°F14.8°C 54.9°F12.7°C 87% Calm Calm -- 30.41 in1029.8 mb - 0.00 in0.0 mm 0.01 in0.3 mm
11:10 AM 60.1°F15.6°C 55.0°F12.8°C 83% Calm Calm -- 30.41 in1029.8 mb - 0.00 in0.0 mm 0.01 in0.3 mm
11:20 AM 61.4°F16.3°C 55.2°F12.9°C 80% Calm Calm -- 30.41 in1029.8 mb - 0.00 in0.0 mm 0.01 in0.3 mm
11:30 AM 62.8°F17.1°C 55.5°F13.1°C 77% Calm Calm -- 30.41 in1029.8 mb - 0.00 in0.0 mm 0.01 in0.3 mm
11:40 AM 63.8°F17.7°C 55.3°F12.9°C 74% Calm Calm -- 30.40 in1029.5 mb - 0.00 in0.0 mm 0.01 in0.3 mm
11:50 AM 64.6°F18.1°C 55.4°F13.0°C 72% Calm Calm -- 30.39 in1029.1 mb - 0.00 in0.0 mm 0.01 in0.3 mm
12:00 PM 65.2°F18.4°C 55.5°F13.1°C 71% Calm Calm -- 30.38 in1028.8 mb - 0.00 in0.0 mm 0.01 in0.3 mm
12:10 PM 65.6°F18.7°C 55.5°F13.1°C 70% Calm Calm -- 30.38 in1028.8 mb - 0.00 in0.0 mm 0.01 in0.3 mm
12:20 PM 66.1°F18.9°C 56.4°F13.6°C 71% Calm Calm -- 30.37 in1028.4 mb - 0.00 in0.0 mm 0.01 in0.3 mm
12:30 PM 66.4°F19.1°C 55.6°F13.1°C 68% Calm Calm -- 30.36 in1028.1 mb - 0.00 in0.0 mm 0.01 in0.3 mm
12:40 PM 67.2°F19.6°C 56.3°F13.5°C 68% Calm Calm -- 30.35 in1027.8 mb - 0.00 in0.0 mm 0.01 in0.3 mm
12:50 PM 68.1°F20.1°C 56.8°F13.8°C 67% Calm Calm -- 30.35 in1027.8 mb - 0.00 in0.0 mm 0.01 in0.3 mm
01:00 PM 69.3°F20.7°C 56.1°F13.4°C 63% Calm Calm 3.5 mph5.6 kmh 30.34 in1027.4 mb - 0.00 in0.0 mm 0.01 in0.3 mm
01:10 PM 70.5°F21.4°C 55.0°F12.8°C 58% 2.3 mph N3.7 kmh N 3.5 mph5.6 kmh 30.34 in1027.4 mb - 0.00 in0.0 mm 0.01 in0.3 mm
01:20 PM 72.1°F22.3°C 51.9°F11.1°C 49% 4.6 mph NW7.4 kmh NW 11.5 mph18.5 kmh 30.34 in1027.4 mb - 0.00 in0.0 mm 0.01 in0.3 mm
01:30 PM 73.3°F22.9°C 51.3°F10.7°C 46% 4.6 mph NW7.4 kmh NW 11.5 mph18.5 kmh 30.34 in1027.4 mb - 0.00 in0.0 mm 0.01 in0.3 mm
01:40 PM 74.3°F23.5°C 52.2°F11.2°C 46% 3.5 mph NNW5.6 kmh NNW 4.6 mph7.4 kmh 30.33 in1027.1 mb - 0.00 in0.0 mm 0.01 in0.3 mm
01:50 PM 74.7°F23.7°C 51.4°F10.8°C 44% 6.9 mph NW11.1 kmh NW 11.5 mph18.5 kmh 30.33 in1027.1 mb - 0.00 in0.0 mm 0.01 in0.3 mm
02:00 PM 75.1°F23.9°C 51.1°F10.6°C 43% 4.6 mph N7.4 kmh N 6.9 mph11.1 kmh 30.33 in1027.1 mb - 0.00 in0.0 mm 0.01 in0.3 mm
02:10 PM 75.5°F24.2°C 50.8°F10.4°C 42% 5.8 mph NNW9.3 kmh NNW 9.2 mph14.8 kmh 30.32 in1026.8 mb - 0.00 in0.0 mm 0.01 in0.3 mm
02:20 PM 75.8°F24.3°C 50.4°F10.2°C 41% 4.6 mph NNW7.4 kmh NNW 5.8 mph9.3 kmh 30.31 in1026.4 mb - 0.00 in0.0 mm 0.01 in0.3 mm
02:30 PM 76.0°F24.4°C 50.6°F10.3°C 41% 5.8 mph N9.3 kmh N 8.1 mph13.0 kmh 30.31 in1026.4 mb - 0.00 in0.0 mm 0.01 in0.3 mm
02:40 PM 75.9°F24.4°C 50.5°F10.3°C 41% 5.8 mph N9.3 kmh N 9.2 mph14.8 kmh 30.31 in1026.4 mb - 0.00 in0.0 mm 0.01 in0.3 mm
02:50 PM 75.9°F24.4°C 50.5°F10.3°C 41% 5.8 mph NW9.3 kmh NW 11.5 mph18.5 kmh 30.31 in1026.4 mb - 0.00 in0.0 mm 0.01 in0.3 mm
03:00 PM 75.8°F24.3°C 50.4°F10.2°C 41% 5.8 mph NW9.3 kmh NW 10.4 mph16.7 kmh 30.31 in1026.4 mb - 0.00 in0.0 mm 0.01 in0.3 mm
03:10 PM 75.7°F24.3°C 49.6°F9.8°C 40% 4.6 mph WNW7.4 kmh WNW 5.8 mph9.3 kmh 30.31 in1026.4 mb - 0.00 in0.0 mm 0.01 in0.3 mm
03:20 PM 75.4°F24.1°C 50.1°F10.1°C 41% 6.9 mph NW11.1 kmh NW 9.2 mph14.8 kmh 30.31 in1026.4 mb - 0.00 in0.0 mm 0.01 in0.3 mm
03:30 PM 75.1°F23.9°C 49.8°F9.9°C 41% 3.5 mph NW5.6 kmh NW 3.5 mph5.6 kmh 30.31 in1026.4 mb - 0.00 in0.0 mm 0.01 in0.3 mm
03:40 PM 74.3°F23.5°C 49.7°F9.8°C 42% 3.5 mph NNW5.6 kmh NNW 4.6 mph7.4 kmh 30.31 in1026.4 mb - 0.00 in0.0 mm 0.01 in0.3 mm
03:50 PM 73.5°F23.1°C 49.6°F9.8°C 43% 6.9 mph NNW11.1 kmh NNW 9.2 mph14.8 kmh 30.31 in1026.4 mb - 0.00 in0.0 mm 0.01 in0.3 mm
04:00 PM 72.8°F22.7°C 49.6°F9.8°C 44% 3.5 mph NNW5.6 kmh NNW 3.5 mph5.6 kmh 30.31 in1026.4 mb - 0.00 in0.0 mm 0.01 in0.3 mm
04:10 PM 72.2°F22.3°C 49.7°F9.8°C 45% 4.6 mph NNW7.4 kmh NNW 10.4 mph16.7 kmh 30.31 in1026.4 mb - 0.00 in0.0 mm 0.01 in0.3 mm
04:20 PM 71.5°F21.9°C 49.6°F9.8°C 46% 5.8 mph NNW9.3 kmh NNW 5.8 mph9.3 kmh 30.31 in1026.4 mb - 0.00 in0.0 mm 0.01 in0.3 mm
04:30 PM 71.0°F21.7°C 49.7°F9.8°C 47% 3.5 mph NW5.6 kmh NW 4.6 mph7.4 kmh 30.31 in1026.4 mb - 0.00 in0.0 mm 0.01 in0.3 mm
04:40 PM 70.4°F21.3°C 49.8°F9.9°C 48% 3.5 mph NNW5.6 kmh NNW 5.8 mph9.3 kmh 30.31 in1026.4 mb - 0.00 in0.0 mm 0.01 in0.3 mm
04:50 PM 69.9°F21.1°C 49.9°F9.9°C 49% 4.6 mph NNW7.4 kmh NNW 4.6 mph7.4 kmh 30.31 in1026.4 mb - 0.00 in0.0 mm 0.01 in0.3 mm
05:00 PM 69.4°F20.8°C 49.9°F9.9°C 50% 3.5 mph NNW5.6 kmh NNW 3.5 mph5.6 kmh 30.31 in1026.4 mb - 0.00 in0.0 mm 0.01 in0.3 mm
05:10 PM 68.8°F20.4°C 49.4°F9.7°C 50% 3.5 mph NNW5.6 kmh NNW 3.5 mph5.6 kmh 30.31 in1026.4 mb - 0.00 in0.0 mm 0.01 in0.3 mm
05:20 PM 68.1°F20.1°C 49.3°F9.6°C 51% 2.3 mph NW3.7 kmh NW 3.5 mph5.6 kmh 30.31 in1026.4 mb - 0.00 in0.0 mm 0.01 in0.3 mm
05:30 PM 67.5°F19.7°C 49.3°F9.6°C 52% 2.3 mph NW3.7 kmh NW 3.5 mph5.6 kmh 30.31 in1026.4 mb - 0.00 in0.0 mm 0.01 in0.3 mm
05:40 PM 66.9°F19.4°C 49.2°F9.6°C 53% 2.3 mph NW3.7 kmh NW 3.5 mph5.6 kmh 30.31 in1026.4 mb - 0.00 in0.0 mm 0.01 in0.3 mm
05:50 PM 66.3°F19.1°C 49.2°F9.6°C 54% 2.3 mph NW3.7 kmh NW 3.5 mph5.6 kmh 30.31 in1026.4 mb - 0.00 in0.0 mm 0.01 in0.3 mm
06:00 PM 65.5°F18.6°C 48.9°F9.4°C 55% 2.3 mph NW3.7 kmh NW 3.5 mph5.6 kmh 30.31 in1026.4 mb - 0.00 in0.0 mm 0.01 in0.3 mm
06:10 PM 64.8°F18.2°C 49.2°F9.6°C 57% 2.3 mph NW3.7 kmh NW 3.5 mph5.6 kmh 30.31 in1026.4 mb - 0.00 in0.0 mm 0.01 in0.3 mm
06:20 PM 64.1°F17.8°C 48.6°F9.2°C 57% 3.5 mph NW5.6 kmh NW 4.6 mph7.4 kmh 30.32 in1026.8 mb - 0.00 in0.0 mm 0.01 in0.3 mm
06:30 PM 63.6°F17.6°C 48.6°F9.2°C 58% 3.5 mph NW5.6 kmh NW 3.5 mph5.6 kmh 30.31 in1026.4 mb - 0.00 in0.0 mm 0.01 in0.3 mm
06:40 PM 63.3°F17.4°C 48.7°F9.3°C 59% 2.3 mph NW3.7 kmh NW 3.5 mph5.6 kmh 30.31 in1026.4 mb - 0.00 in0.0 mm 0.01 in0.3 mm
06:50 PM 62.8°F17.1°C 48.3°F9.1°C 59% 2.3 mph NW3.7 kmh NW 3.5 mph5.6 kmh 30.32 in1026.8 mb - 0.00 in0.0 mm 0.01 in0.3 mm
07:00 PM 62.3°F16.8°C 48.2°F9.0°C 60% 4.6 mph NW7.4 kmh NW 4.6 mph7.4 kmh 30.32 in1026.8 mb - 0.00 in0.0 mm 0.01 in0.3 mm
07:10 PM 61.8°F16.6°C 48.2°F9.0°C 61% 2.3 mph NW3.7 kmh NW 3.5 mph5.6 kmh 30.32 in1026.8 mb - 0.00 in0.0 mm 0.01 in0.3 mm
07:20 PM 61.5°F16.4°C 47.9°F8.8°C 61% 1.2 mph NW1.9 kmh NW 3.5 mph5.6 kmh 30.32 in1026.8 mb - 0.00 in0.0 mm 0.01 in0.3 mm
07:30 PM 61.2°F16.2°C 47.6°F8.7°C 61% 1.2 mph NW1.9 kmh NW 2.3 mph3.7 kmh 30.32 in1026.8 mb - 0.00 in0.0 mm 0.01 in0.3 mm
07:40 PM 60.7°F15.9°C 47.6°F8.7°C 62% 2.3 mph NW3.7 kmh NW 3.5 mph5.6 kmh 30.32 in1026.8 mb - 0.00 in0.0 mm 0.01 in0.3 mm
07:50 PM 60.2°F15.7°C 47.6°F8.7°C 63% 2.3 mph NW3.7 kmh NW 3.5 mph5.6 kmh 30.32 in1026.8 mb - 0.00 in0.0 mm 0.01 in0.3 mm
08:00 PM 59.7°F15.4°C 47.1°F8.4°C 63% 2.3 mph NW3.7 kmh NW 2.3 mph3.7 kmh 30.32 in1026.8 mb - 0.00 in0.0 mm 0.01 in0.3 mm
08:10 PM 59.3°F15.2°C 47.1°F8.4°C 64% 2.3 mph NW3.7 kmh NW 3.5 mph5.6 kmh 30.31 in1026.4 mb - 0.00 in0.0 mm 0.01 in0.3 mm
08:20 PM 58.8°F14.9°C 47.5°F8.6°C 66% 4.6 mph NNW7.4 kmh NNW 4.6 mph7.4 kmh 30.31 in1026.4 mb - 0.00 in0.0 mm 0.01 in0.3 mm
08:30 PM 58.4°F14.7°C 47.5°F8.6°C 67% 3.5 mph N5.6 kmh N 3.5 mph5.6 kmh 30.31 in1026.4 mb - 0.00 in0.0 mm 0.01 in0.3 mm
08:40 PM 58.2°F14.6°C 47.7°F8.7°C 68% 3.5 mph N5.6 kmh N 5.8 mph9.3 kmh 30.31 in1026.4 mb - 0.00 in0.0 mm 0.01 in0.3 mm
08:50 PM 58.0°F14.4°C 47.5°F8.6°C 68% 2.3 mph N3.7 kmh N 3.5 mph5.6 kmh 30.31 in1026.4 mb - 0.00 in0.0 mm 0.01 in0.3 mm
09:00 PM 57.7°F14.3°C 47.6°F8.7°C 69% 3.5 mph N5.6 kmh N 4.6 mph7.4 kmh 30.30 in1026.1 mb - 0.00 in0.0 mm 0.01 in0.3 mm
09:10 PM 57.5°F14.2°C 47.8°F8.8°C 70% 3.5 mph N5.6 kmh N 3.5 mph5.6 kmh 30.30 in1026.1 mb - 0.00 in0.0 mm 0.01 in0.3 mm
09:20 PM 57.2°F14.0°C 47.5°F8.6°C 70% 3.5 mph N5.6 kmh N 3.5 mph5.6 kmh 30.30 in1026.1 mb - 0.00 in0.0 mm 0.01 in0.3 mm
09:30 PM 57.0°F13.9°C 47.7°F8.7°C 71% 2.3 mph N3.7 kmh N 3.5 mph5.6 kmh 30.30 in1026.1 mb - 0.00 in0.0 mm 0.01 in0.3 mm
09:40 PM 56.8°F13.8°C 47.5°F8.6°C 71% 1.2 mph N1.9 kmh N 2.3 mph3.7 kmh 30.30 in1026.1 mb - 0.00 in0.0 mm 0.01 in0.3 mm
09:50 PM 56.7°F13.7°C 47.8°F8.8°C 72% 1.2 mph N1.9 kmh N 3.5 mph5.6 kmh 30.30 in1026.1 mb - 0.00 in0.0 mm 0.01 in0.3 mm
10:00 PM 56.5°F13.6°C 47.6°F8.7°C 72% 2.3 mph N3.7 kmh N 3.5 mph5.6 kmh 30.30 in1026.1 mb - 0.00 in0.0 mm 0.01 in0.3 mm
10:10 PM 56.4°F13.6°C 47.5°F8.6°C 72% 2.3 mph N3.7 kmh N 3.5 mph5.6 kmh 30.29 in1025.7 mb - 0.00 in0.0 mm 0.01 in0.3 mm
10:20 PM 56.4°F13.6°C 47.9°F8.8°C 73% 2.3 mph N3.7 kmh N 3.5 mph5.6 kmh 30.29 in1025.7 mb - 0.00 in0.0 mm 0.01 in0.3 mm
10:30 PM 56.3°F13.5°C 47.7°F8.7°C 73% 2.3 mph N3.7 kmh N 3.5 mph5.6 kmh 30.29 in1025.7 mb - 0.00 in0.0 mm 0.01 in0.3 mm
10:40 PM 56.2°F13.4°C 47.6°F8.7°C 73% 2.3 mph N3.7 kmh N 2.3 mph3.7 kmh 30.28 in1025.4 mb - 0.00 in0.0 mm 0.01 in0.3 mm
10:50 PM 56.1°F13.4°C 47.6°F8.7°C 73% 2.3 mph N3.7 kmh N 3.5 mph5.6 kmh 30.28 in1025.4 mb - 0.00 in0.0 mm 0.01 in0.3 mm
11:00 PM 56.0°F13.3°C 47.8°F8.8°C 74% 2.3 mph NNE3.7 kmh NNE 3.5 mph5.6 kmh 30.28 in1025.4 mb - 0.00 in0.0 mm 0.01 in0.3 mm
11:10 PM 55.8°F13.2°C 47.7°F8.7°C 74% 3.5 mph N5.6 kmh N 3.5 mph5.6 kmh 30.28 in1025.4 mb - 0.00 in0.0 mm 0.01 in0.3 mm
11:20 PM 55.8°F13.2°C 47.6°F8.7°C 74% 2.3 mph N3.7 kmh N 4.6 mph7.4 kmh 30.28 in1025.4 mb - 0.00 in0.0 mm 0.01 in0.3 mm
11:30 PM 55.7°F13.2°C 47.5°F8.6°C 74% 1.2 mph N1.9 kmh N 3.5 mph5.6 kmh 30.27 in1025.1 mb - 0.00 in0.0 mm 0.01 in0.3 mm
11:40 PM 55.6°F13.1°C 47.8°F8.8°C 75% 1.2 mph N1.9 kmh N 3.5 mph5.6 kmh 30.27 in1025.1 mb - 0.00 in0.0 mm 0.01 in0.3 mm
11:50 PM 55.5°F13.1°C 47.7°F8.7°C 75% 1.2 mph N1.9 kmh N 2.3 mph3.7 kmh 30.27 in1025.1 mb - 0.00 in0.0 mm 0.01 in0.3 mm